EST,Max TemperatureF,Mean TemperatureF,Min TemperatureF,Max Dew PointF,MeanDew PointF,Min DewpointF,Max Humidity, Mean Humidity, Min Humidity, Max Sea Level PressureIn, Mean Sea Level PressureIn, Min Sea Level PressureIn, Max VisibilityMiles, Mean VisibilityMiles, Min VisibilityMiles, Max Wind SpeedMPH, Mean Wind SpeedMPH, Max Gust SpeedMPH,PrecipitationIn, CloudCover, Events, WindDirDegrees
2013-2-1,61,48,34,32,25,14,72,47,20,30.37,30.27,30.22,10,10,10,16,7,23,0.00,0,,283
2013-2-2,62,44,27,29,19,11,73,45,14,30.38,30.27,30.14,10,10,10,9,2,,0.00,0,,250
2013-2-3,63,52,42,34,30,28,70,46,25,30.16,30.08,30.00,10,10,10,21,9,29,0.00,1,,265
2013-2-4,57,44,30,39,33,27,92,64,35,30.15,30.10,30.06,10,10,10,7,1,,0.00,6,,256
2013-2-5,71,54,36,48,44,35,96,64,40,30.09,30.03,29.98,10,10,10,13,4,17,0.00,3,Rain,239
2013-2-6,73,60,48,54,51,49,100,75,45,30.17,30.11,30.05,10,10,10,7,1,,0.00,3,,244
2013-2-7,64,56,48,64,60,49,100,100,94,30.12,29.93,29.75,10,8,1,23,6,32,1.01,8,Rain,107
2013-2-8,64,56,48,54,50,48,100,88,63,30.09,29.96,29.83,10,10,4,12,8,,0.00,7,,282
2013-2-9,64,51,37,49,37,26,100,67,23,30.31,30.24,30.10,10,10,10,9,5,,0.00,0,,16
2013-2-10,69,52,35,57,48,35,99,77,50,30.33,30.26,30.17,10,10,10,16,4,24,0.00,4,,118
2013-2-11,73,66,60,64,61,57,100,95,66,30.17,30.12,30.06,10,8,1,12,4,,0.69,8,Rain-Thunderstorm,295
2013-2-12,60,58,55,61,59,55,100,99,87,30.11,30.00,29.83,10,7,0,12,3,,1.80,8,Fog-Rain-Thunderstorm,49
2013-2-13,79,65,51,67,60,44,100,93,40,29.93,29.79,29.73,10,8,0,18,6,28,1.55,7,Fog-Rain-Thunderstorm,261
2013-2-14,51,47,41,48,43,39,99,85,67,30.10,30.03,29.94,10,10,10,7,5,,0.00,4,,315
2013-2-15,65,50,34,44,38,32,100,80,30,30.12,30.05,29.99,10,10,8,8,2,,0.00,0,,323
2013-2-16,53,46,37,42,35,14,99,74,33,30.13,29.96,29.91,10,10,9,21,7,33,0.02,5,Rain,298
2013-2-17,50,40,28,24,14,7,81,40,18,30.35,30.26,30.15,10,10,10,20,9,26,0.00,0,,293
2013-2-18,57,40,23,34,25,15,90,60,23,30.44,30.36,30.26,10,10,10,13,2,17,0.00,0,,106
2013-2-19,64,50,37,58,51,34,100,91,56,30.24,30.07,30.00,10,8,0,15,4,20,0.05,5,Fog-Rain,247
2013-2-20,62,46,31,47,32,23,99,61,25,30.20,30.13,30.09,10,10,10,9,4,,0.00,1,,290
2013-2-21,70,50,30,51,35,26,98,67,20,30.18,30.12,30.06,10,10,10,13,3,,0.00,1,,85
2013-2-22,62,58,54,63,59,52,100,96,82,30.14,30.06,29.99,10,6,1,16,5,17,0.16,8,Rain,60
2013-2-23,64,58,52,64,59,53,100,100,97,30.03,29.93,29.83,10,8,0,18,5,28,1.87,8,Fog-Rain-Thunderstorm,288
2013-2-24,73,62,50,61,51,38,100,85,29,30.01,29.95,29.84,10,10,10,14,5,18,0.00,4,Rain,296
2013-2-25,55,52,48,55,52,48,100,98,77,30.03,29.95,29.88,10,8,4,16,6,24,1.00,8,Rain-Thunderstorm,65
2013-2-26,75,61,47,68,58,46,100,91,38,29.87,29.69,29.60,10,6,1,17,7,28,1.23,6,Rain,131
2013-2-27,57,52,48,48,40,36,77,63,48,29.95,29.89,29.80,10,10,10,13,9,,0.00,3,,258
2013-2-28,63,53,43,43,35,29,90,54,28,29.95,29.90,29.84,10,10,10,21,9,26,0.00,2,,266